Time;durP1;ratioP1;P1;durP2;ratioP2;P2;SDS_P1;SDS_P2;PMS_P1;PMS_P2;Temp;Humidity;BMP_temperature;BMP_pressure;BME280_temperature;BME280_humidity;BME280_pressure;Samples;Min_cycle;Max_cycle;Signal;HPM_P1;HPM_P2
2023/12/11 00:01:19;;;;;;;1.92;0.60;;;24.30;37.50;;;;;;5070984;28;20040;-68
2023/12/11 00:03:45;;;;;;;2.92;0.60;;;24.30;37.40;;;;;;5070992;28;20498;-68
2023/12/11 00:06:11;;;;;;;1.95;0.40;;;24.40;37.40;;;;;;5071946;28;20079;-68
2023/12/11 00:08:36;;;;;;;2.83;0.40;;;24.40;37.40;;;;;;5070998;28;20076;-67
2023/12/11 00:11:02;;;;;;;2.90;0.43;;;24.40;37.30;;;;;;5070892;28;20442;-67
2023/12/11 00:13:28;;;;;;;2.30;0.30;;;24.50;37.30;;;;;;5070684;28;20396;-68
2023/12/11 00:15:53;;;;;;;3.00;0.30;;;24.50;37.20;;;;;;5071801;28;20043;-68
2023/12/11 00:18:19;;;;;;;2.25;0.40;;;24.50;37.90;;;;;;5070189;28;20056;-68
2023/12/11 00:20:45;;;;;;;2.30;0.45;;;24.50;37.20;;;;;;5071831;28;20052;-68
2023/12/11 00:23:10;;;;;;;0.90;0.20;;;24.50;37.30;;;;;;5071758;28;20040;-68
2023/12/11 00:25:37;;;;;;;2.85;0.38;;;24.40;37.40;;;;;;5070579;28;20037;-67
2023/12/11 00:28:03;;;;;;;2.90;0.60;;;24.30;37.50;;;;;;5070457;28;20354;-67
2023/12/11 00:30:29;;;;;;;1.42;0.40;;;24.20;37.60;;;;;;5070542;28;20044;-70
2023/12/11 00:32:54;;;;;;;2.00;0.30;;;24.20;37.70;;;;;;5071701;28;20089;-68
2023/12/11 00:35:20;;;;;;;2.63;0.38;;;24.20;37.70;;;;;;5073832;28;20052;-68
2023/12/11 00:37:46;;;;;;;3.15;0.52;;;24.30;37.60;;;;;;5074499;28;20045;-67
2023/12/11 00:40:12;;;;;;;4.43;0.38;;;24.40;37.50;;;;;;5074479;28;20123;-69
2023/12/11 00:42:37;;;;;;;2.95;0.45;;;24.50;37.40;;;;;;5074723;28;20115;-69
2023/12/11 00:45:03;;;;;;;3.83;0.40;;;24.50;37.20;;;;;;5075681;28;20531;-67
2023/12/11 00:47:29;;;;;;;2.47;0.38;;;24.60;37.10;;;;;;5074294;28;20041;-68
2023/12/11 00:49:55;;;;;;;3.15;0.40;;;24.70;37.10;;;;;;5074557;28;20369;-69
2023/12/11 00:52:20;;;;;;;2.55;0.35;;;24.70;37.10;;;;;;5074485;28;20040;-70
2023/12/11 00:54:46;;;;;;;3.45;0.50;;;24.70;37.00;;;;;;5074261;28;20033;-68
2023/12/11 00:57:12;;;;;;;2.78;0.65;;;24.70;37.00;;;;;;5074069;28;20040;-69
2023/12/11 00:59:38;;;;;;;2.65;0.50;;;24.70;37.00;;;;;;5075375;28;20172;-68
2023/12/11 01:02:04;;;;;;;2.42;0.30;;;24.70;37.10;;;;;;5074410;28;20072;-70
2023/12/11 01:04:30;;;;;;;1.58;0.47;;;24.70;37.00;;;;;;5074169;28;20079;-70
2023/12/11 01:06:56;;;;;;;1.45;0.45;;;24.80;37.00;;;;;;5074015;28;20044;-68
2023/12/11 01:09:21;;;;;;;1.98;0.40;;;24.80;37.00;;;;;;5074112;28;20053;-70
2023/12/11 01:11:47;;;;;;;3.42;0.57;;;24.80;36.90;;;;;;5074146;28;20052;-68
2023/12/11 01:14:13;;;;;;;1.80;0.50;;;24.80;36.90;;;;;;5075122;28;20040;-68
2023/12/11 01:16:39;;;;;;;2.53;0.57;;;24.80;37.60;;;;;;5073806;28;20048;-68
2023/12/11 01:19:04;;;;;;;1.67;0.38;;;24.90;36.90;;;;;;5073560;28;20045;-68
2023/12/11 01:21:30;;;;;;;2.67;0.47;;;24.90;36.90;;;;;;5073665;28;20440;-68
2023/12/11 01:23:56;;;;;;;1.50;0.32;;;24.90;36.80;;;;;;5073612;28;20051;-67
2023/12/11 01:26:21;;;;;;;4.07;0.77;;;24.90;36.80;;;;;;5074936;28;20449;-68
2023/12/11 01:28:47;;;;;;;2.30;0.60;;;24.90;36.80;;;;;;5073545;28;20072;-68
2023/12/11 01:31:13;;;;;;;1.83;0.63;;;24.90;36.80;;;;;;5073599;28;20049;-68
2023/12/11 01:33:38;;;;;;;2.03;0.30;;;24.90;36.80;;;;;;5073504;28;20044;-68
2023/12/11 01:36:04;;;;;;;2.03;0.40;;;24.80;36.80;;;;;;5073656;28;20040;-68
2023/12/11 01:38:30;;;;;;;1.58;0.35;;;24.80;36.90;;;;;;5074587;28;20059;-68
2023/12/11 01:40:56;;;;;;;2.78;0.57;;;24.80;36.90;;;;;;5073268;28;20120;-69
2023/12/11 01:43:21;;;;;;;3.65;0.52;;;24.80;37.00;;;;;;5073312;28;20040;-68
2023/12/11 01:46:10;;;;;;;1.67;0.25;;;24.70;37.00;;;;;;5072764;28;20037;-68
2023/12/11 01:48:37;;;;;;;2.53;0.40;;;24.80;37.30;;;;;;5073073;28;20055;-68
2023/12/11 01:51:04;;;;;;;2.22;0.47;;;24.70;37.20;;;;;;5073147;28;20062;-68
2023/12/11 01:53:30;;;;;;;2.17;0.30;;;24.60;37.20;;;;;;5073053;28;20051;-68
2023/12/11 01:55:56;;;;;;;3.17;0.50;;;24.60;37.30;;;;;;5073291;28;20047;-68
2023/12/11 01:58:22;;;;;;;1.92;0.32;;;24.60;37.40;;;;;;5073220;28;20098;-68
2023/12/11 02:00:48;;;;;;;2.25;0.50;;;24.60;37.40;;;;;;5072899;28;20044;-68
2023/12/11 02:03:14;;;;;;;1.50;0.30;;;24.60;37.40;;;;;;5072867;28;20036;-68
2023/12/11 02:05:42;;;;;;;2.90;0.50;;;24.50;37.30;;;;;;5074038;28;20452;-68
2023/12/11 02:08:09;;;;;;;1.85;0.55;;;24.50;37.40;;;;;;5074174;28;20333;-70
2023/12/11 02:10:36;;;;;;;1.33;0.28;;;24.60;37.40;;;;;;5072997;28;20175;-68
2023/12/11 02:13:03;;;;;;;2.13;0.47;;;24.60;37.40;;;;;;5073012;28;20101;-68
2023/12/11 02:15:40;;;;;;;3.50;0.80;;;24.60;37.40;;;;;;5072909;28;20037;-68
2023/12/11 02:18:08;;;;;;;3.67;0.43;;;24.60;37.40;;;;;;5072380;28;20083;-68
2023/12/11 02:20:34;;;;;;;3.55;0.65;;;24.60;37.40;;;;;;5073830;28;20040;-68
2023/12/11 02:23:04;;;;;;;2.40;0.63;;;24.60;37.40;;;;;;5073813;28;20055;-68
2023/12/11 02:25:31;;;;;;;2.57;0.70;;;24.60;37.50;;;;;;5072585;28;20127;-68
2023/12/11 02:27:58;;;;;;;3.10;0.82;;;24.50;37.50;;;;;;5072493;28;20282;-68
2023/12/11 02:30:24;;;;;;;2.92;0.43;;;24.50;37.50;;;;;;5072352;28;20055;-68
2023/12/11 02:32:52;;;;;;;2.25;0.38;;;24.50;37.60;;;;;;5072633;28;20084;-68
2023/12/11 02:35:17;;;;;;;3.33;0.47;;;24.50;37.60;;;;;;5072292;28;20127;-68
2023/12/11 02:37:43;;;;;;;2.33;0.55;;;24.40;37.70;;;;;;5073595;28;20124;-70
2023/12/11 02:40:09;;;;;;;1.92;0.55;;;24.40;37.80;;;;;;5072226;28;20068;-68
2023/12/11 02:42:34;;;;;;;2.70;0.88;;;24.40;37.80;;;;;;5072439;28;20400;-68
2023/12/11 02:45:00;;;;;;;2.85;0.68;;;24.30;37.80;;;;;;5055861;28;20037;-68
2023/12/11 02:47:26;;;;;;;2.08;0.43;;;24.30;37.90;;;;;;5071939;28;20044;-68
2023/12/11 02:49:51;;;;;;;2.17;0.47;;;24.20;38.00;;;;;;5072349;28;20457;-68
2023/12/11 02:52:17;;;;;;;2.10;0.57;;;24.20;38.10;;;;;;5071909;28;20396;-71
2023/12/11 02:54:43;;;;;;;2.45;0.60;;;24.20;38.10;;;;;;5072004;28;20040;-68
2023/12/11 02:57:08;;;;;;;2.03;0.45;;;24.10;38.20;;;;;;5071286;28;20119;-70
2023/12/11 02:59:34;;;;;;;1.85;0.40;;;24.10;38.20;;;;;;5072704;28;20120;-68
2023/12/11 03:01:59;;;;;;;2.50;0.40;;;24.10;38.40;;;;;;5071956;28;20086;-68
2023/12/11 03:04:25;;;;;;;2.55;0.40;;;24.10;38.30;;;;;;5072021;28;20044;-68
2023/12/11 03:06:52;;;;;;;2.15;0.45;;;24.10;38.40;;;;;;5071923;28;20476;-68
2023/12/11 03:09:17;;;;;;;3.05;0.65;;;24.10;38.40;;;;;;5072971;28;20040;-68
2023/12/11 03:11:43;;;;;;;1.92;0.40;;;24.10;38.30;;;;;;5071529;28;20472;-68
2023/12/11 03:14:09;;;;;;;3.25;0.73;;;24.10;38.30;;;;;;5071574;28;20055;-68
2023/12/11 03:16:34;;;;;;;3.35;0.47;;;24.10;38.40;;;;;;5071516;28;20045;-73
2023/12/11 03:19:00;;;;;;;3.45;0.90;;;24.20;38.30;;;;;;5072764;28;20072;-68
2023/12/11 03:21:26;;;;;;;3.83;0.70;;;24.20;38.30;;;;;;5071655;28;20055;-68
2023/12/11 03:23:51;;;;;;;2.83;0.70;;;24.20;38.30;;;;;;5072794;28;20460;-67
2023/12/11 03:26:17;;;;;;;2.78;0.70;;;24.20;38.50;;;;;;5071622;28;20476;-67
2023/12/11 03:28:42;;;;;;;4.05;0.50;;;24.20;38.30;;;;;;5071263;28;20040;-67
2023/12/11 03:31:08;;;;;;;2.38;0.50;;;24.10;38.30;;;;;;5071559;28;20090;-67
2023/12/11 03:33:34;;;;;;;3.35;0.73;;;24.10;38.30;;;;;;5072402;28;20472;-67
2023/12/11 03:35:59;;;;;;;2.63;0.38;;;24.10;38.40;;;;;;5072538;28;20106;-67
2023/12/11 03:38:25;;;;;;;2.15;0.68;;;24.10;38.50;;;;;;5071200;28;20045;-67
2023/12/11 03:40:51;;;;;;;2.85;1.05;;;24.00;38.60;;;;;;5072307;28;20480;-67
2023/12/11 03:43:16;;;;;;;3.55;0.43;;;24.00;38.60;;;;;;5071318;28;20525;-67
2023/12/11 03:45:42;;;;;;;2.65;0.63;;;23.90;38.60;;;;;;5071075;28;20463;-67
2023/12/11 03:48:08;;;;;;;1.70;0.50;;;23.90;38.70;;;;;;5071165;28;20052;-67
2023/12/11 03:50:33;;;;;;;3.63;0.95;;;23.90;38.80;;;;;;5070918;28;20404;-67
2023/12/11 03:52:59;;;;;;;3.33;0.60;;;23.90;38.80;;;;;;5072060;28;20090;-67
2023/12/11 03:55:25;;;;;;;1.73;0.73;;;23.80;38.90;;;;;;5072530;28;20366;-67
2023/12/11 03:57:51;;;;;;;3.83;0.80;;;23.80;38.90;;;;;;5070809;28;20098;-67
2023/12/11 04:00:16;;;;;;;3.15;0.55;;;23.80;39.00;;;;;;5071006;28;20090;-67
2023/12/11 04:02:42;;;;;;;2.40;0.70;;;23.70;39.00;;;;;;5071085;28;20071;-67
2023/12/11 04:05:08;;;;;;;3.45;0.77;;;23.70;39.10;;;;;;5070910;28;20476;-67
2023/12/11 04:07:34;;;;;;;3.30;0.60;;;23.70;39.10;;;;;;5071311;28;20430;-67
2023/12/11 04:09:59;;;;;;;2.95;0.65;;;23.70;39.10;;;;;;5071645;28;20115;-67
2023/12/11 04:12:25;;;;;;;3.38;0.63;;;23.70;39.10;;;;;;5070705;28;20067;-67
2023/12/11 04:14:51;;;;;;;3.08;0.50;;;23.70;39.20;;;;;;5070672;28;20121;-67
2023/12/11 04:17:16;;;;;;;2.25;0.50;;;23.70;39.20;;;;;;5070538;28;20044;-67
2023/12/11 04:19:43;;;;;;;2.08;0.63;;;23.70;39.20;;;;;;5070410;28;20061;-67
2023/12/11 04:22:09;;;;;;;2.55;0.50;;;23.70;39.20;;;;;;5070844;28;20048;-67
2023/12/11 04:24:35;;;;;;;3.88;0.50;;;23.70;39.20;;;;;;5070695;28;20040;-67
2023/12/11 04:27:00;;;;;;;3.75;0.80;;;23.70;39.20;;;;;;5071990;28;20078;-67
2023/12/11 04:29:26;;;;;;;3.92;0.60;;;23.80;39.20;;;;;;5070774;28;20078;-67
2023/12/11 04:31:52;;;;;;;2.22;0.60;;;23.70;39.20;;;;;;5071823;28;20040;-67
2023/12/11 04:34:17;;;;;;;3.67;0.68;;;23.70;39.20;;;;;;5070716;28;20040;-67
2023/12/11 04:36:43;;;;;;;2.35;0.60;;;23.70;39.20;;;;;;5072122;28;20045;-67
2023/12/11 04:39:09;;;;;;;3.08;0.50;;;23.70;39.30;;;;;;5071649;28;20110;-67
2023/12/11 04:41:35;;;;;;;2.72;0.70;;;23.70;39.30;;;;;;5070293;28;20044;-67
2023/12/11 04:44:03;;;;;;;3.45;0.65;;;23.70;39.30;;;;;;5070522;28;20068;-67
2023/12/11 04:46:29;;;;;;;2.72;0.60;;;23.60;39.30;;;;;;5071633;28;20068;-67
2023/12/11 04:48:55;;;;;;;3.75;0.82;;;23.60;39.30;;;;;;5071609;28;20040;-67
2023/12/11 04:51:21;;;;;;;2.35;0.57;;;23.70;39.30;;;;;;5070236;28;20049;-68
2023/12/11 04:53:46;;;;;;;3.35;0.60;;;23.70;39.30;;;;;;5071592;28;20037;-67
2023/12/11 04:56:12;;;;;;;2.97;0.73;;;23.70;39.30;;;;;;5071702;28;20492;-67
2023/12/11 04:58:38;;;;;;;4.65;0.70;;;23.70;39.30;;;;;;5071757;28;20052;-68
2023/12/11 05:01:04;;;;;;;2.53;0.90;;;23.70;39.30;;;;;;5071476;28;20032;-68
2023/12/11 05:03:29;;;;;;;4.53;0.88;;;23.70;39.30;;;;;;5070211;28;20555;-68
2023/12/11 05:05:55;;;;;;;2.05;0.65;;;23.80;39.30;;;;;;5071373;28;20380;-68
2023/12/11 05:08:21;;;;;;;2.20;0.65;;;23.80;39.30;;;;;;5070407;28;20046;-68
2023/12/11 05:10:46;;;;;;;2.33;0.40;;;23.80;39.30;;;;;;5070117;28;20052;-67
2023/12/11 05:13:12;;;;;;;2.40;0.75;;;23.80;39.30;;;;;;5070138;28;20090;-68
2023/12/11 05:15:38;;;;;;;3.60;0.55;;;23.80;39.20;;;;;;5071400;28;20098;-68
2023/12/11 05:18:03;;;;;;;3.40;0.70;;;23.80;39.20;;;;;;5070967;28;20045;-68
2023/12/11 05:20:29;;;;;;;3.13;0.63;;;23.80;39.30;;;;;;5071302;28;20036;-71
2023/12/11 05:22:55;;;;;;;2.33;0.60;;;23.80;39.30;;;;;;5074852;28;20036;-67
2023/12/11 05:25:20;;;;;;;3.20;0.70;;;23.80;39.30;;;;;;5074895;28;20044;-67
2023/12/11 05:27:46;;;;;;;2.60;0.80;;;23.80;39.30;;;;;;5073804;28;20380;-68
2023/12/11 05:30:12;;;;;;;3.20;0.63;;;23.80;39.40;;;;;;5073892;28;20396;-68
2023/12/11 05:32:38;;;;;;;4.07;0.55;;;23.80;39.40;;;;;;5073447;28;20043;-67
2023/12/11 05:35:05;;;;;;;2.55;0.50;;;23.70;39.30;;;;;;5073465;28;20051;-67
2023/12/11 05:37:31;;;;;;;3.40;0.52;;;23.80;39.30;;;;;;5073563;28;20081;-67
2023/12/11 05:39:57;;;;;;;3.22;0.82;;;23.70;39.40;;;;;;5073300;28;20498;-67
2023/12/11 05:42:22;;;;;;;2.22;0.57;;;23.70;39.40;;;;;;5074751;28;20159;-67
2023/12/11 05:44:48;;;;;;;3.30;0.47;;;23.70;39.50;;;;;;5073299;28;20068;-67
2023/12/11 05:47:14;;;;;;;2.97;0.57;;;23.70;39.50;;;;;;5073439;28;20119;-67
2023/12/11 05:49:39;;;;;;;2.20;0.45;;;23.70;40.20;;;;;;5073286;28;20071;-67
2023/12/11 05:52:05;;;;;;;4.90;0.60;;;23.70;39.50;;;;;;5073294;28;20044;-67
2023/12/11 05:54:31;;;;;;;3.45;0.82;;;23.70;39.60;;;;;;5074454;28;20037;-67
2023/12/11 05:56:57;;;;;;;3.63;0.73;;;23.70;39.60;;;;;;5073462;28;20032;-71
2023/12/11 05:59:22;;;;;;;2.33;0.50;;;23.70;39.60;;;;;;5074275;28;20037;-71
2023/12/11 06:01:48;;;;;;;2.22;0.50;;;23.60;39.60;;;;;;5072993;28;20044;-67
2023/12/11 06:04:14;;;;;;;2.40;0.47;;;23.60;39.60;;;;;;5072901;28;20048;-67
2023/12/11 06:06:39;;;;;;;2.90;0.55;;;23.60;39.70;;;;;;5072977;28;20047;-67
2023/12/11 06:09:05;;;;;;;2.65;1.00;;;23.60;39.60;;;;;;5074034;28;20037;-67
2023/12/11 06:11:31;;;;;;;2.28;0.60;;;23.60;39.70;;;;;;5073075;28;20041;-68
2023/12/11 06:13:57;;;;;;;3.50;0.68;;;23.60;39.70;;;;;;5073042;28;20484;-70
2023/12/11 06:16:22;;;;;;;1.75;0.45;;;23.60;39.70;;;;;;5073968;28;20039;-68
2023/12/11 06:18:48;;;;;;;3.63;0.60;;;23.60;39.70;;;;;;5071478;28;20127;-67
2023/12/11 06:21:18;;;;;;;2.28;0.40;;;23.60;39.70;;;;;;5072671;28;20041;-68
2023/12/11 06:23:44;;;;;;;7.95;1.25;;;23.60;39.70;;;;;;5072489;28;20044;-66
2023/12/11 06:26:10;;;;;;;4.93;1.35;;;23.60;40.10;;;;;;5071851;28;20085;-65
2023/12/11 06:28:36;;;;;;;4.07;1.10;;;23.40;41.00;;;;;;5070274;28;20406;-65
2023/12/11 06:31:01;;;;;;;3.88;0.82;;;23.20;42.10;;;;;;5071797;28;20032;-66
2023/12/11 06:33:27;;;;;;;5.28;0.70;;;23.00;42.60;;;;;;5070474;28;20036;-68
2023/12/11 06:35:53;;;;;;;3.28;0.82;;;23.00;42.90;;;;;;5072119;28;20036;-66
2023/12/11 06:38:18;;;;;;;8.95;0.85;;;23.00;43.20;;;;;;5071442;28;20048;-64
2023/12/11 06:40:44;;;;;;;3.42;0.70;;;23.00;43.40;;;;;;5070189;28;20147;-67
2023/12/11 06:43:09;;;;;;;3.95;1.10;;;23.10;43.20;;;;;;5068833;28;20267;-67
2023/12/11 06:45:35;;;;;;;5.53;1.60;;;23.20;43.00;;;;;;5068674;28;20119;-67
2023/12/11 06:48:01;;;;;;;8.02;2.25;;;23.20;42.60;;;;;;5068401;28;20104;-66
2023/12/11 06:50:27;;;;;;;6.43;1.60;;;23.30;42.30;;;;;;5068272;28;20044;-67
2023/12/11 06:52:52;;;;;;;5.50;1.40;;;23.30;42.10;;;;;;5062977;28;20048;-67
2023/12/11 06:55:18;;;;;;;4.20;1.10;;;23.30;42.20;;;;;;5067996;28;20040;-67
2023/12/11 06:57:44;;;;;;;2.67;0.60;;;23.40;42.30;;;;;;5069854;28;20044;-66
2023/12/11 07:00:10;;;;;;;4.22;0.55;;;23.50;42.30;;;;;;5069445;28;20038;-67
2023/12/11 07:02:36;;;;;;;4.95;0.95;;;23.50;42.20;;;;;;5069808;28;20393;-67
2023/12/11 07:05:01;;;;;;;4.65;0.77;;;23.60;42.10;;;;;;5069397;28;20038;-67
2023/12/11 07:07:27;;;;;;;4.53;0.77;;;23.70;42.00;;;;;;5066637;28;20032;-70
2023/12/11 07:09:52;;;;;;;6.63;1.45;;;23.60;42.00;;;;;;5067676;28;20059;-67
2023/12/11 07:12:19;;;;;;;5.65;0.80;;;23.70;42.10;;;;;;5067364;28;20047;-65
2023/12/11 07:14:48;;;;;;;4.28;1.02;;;23.70;42.10;;;;;;5067243;28;20123;-68
2023/12/11 07:17:13;;;;;;;6.75;1.15;;;23.70;42.10;;;;;;5068238;28;20173;-66
2023/12/11 07:19:39;;;;;;;3.28;0.75;;;23.80;42.10;;;;;;5049613;28;20047;-66
2023/12/11 07:22:04;;;;;;;3.83;1.08;;;23.80;41.90;;;;;;5050504;28;20082;-66
2023/12/11 07:24:30;;;;;;;5.38;0.90;;;23.80;41.80;;;;;;5051801;28;20036;-66
2023/12/11 07:26:57;;;;;;;5.40;1.33;;;23.70;41.80;;;;;;5048260;28;20032;-66
2023/12/11 07:29:23;;;;;;;4.88;0.57;;;23.70;42.00;;;;;;5051488;28;20121;-68
2023/12/11 07:31:49;;;;;;;4.43;0.70;;;23.80;42.10;;;;;;5047763;28;20153;-66
2023/12/11 07:34:14;;;;;;;2.85;0.98;;;23.80;42.00;;;;;;5056301;28;20048;-66
2023/12/11 07:36:40;;;;;;;3.83;0.98;;;23.80;41.80;;;;;;5051222;28;20599;-66
2023/12/11 07:39:06;;;;;;;4.93;1.27;;;23.70;41.90;;;;;;5033084;28;20041;-66
2023/12/11 07:41:31;;;;;;;7.13;1.42;;;23.60;42.30;;;;;;5047538;28;20040;-66
2023/12/11 07:43:58;;;;;;;5.20;1.10;;;23.50;42.60;;;;;;5046439;28;20175;-69
2023/12/11 07:46:23;;;;;;;7.32;1.50;;;23.40;42.80;;;;;;5049941;28;20041;-67
2023/12/11 07:48:49;;;;;;;4.80;1.27;;;23.20;43.00;;;;;;5048687;28;20040;-70
2023/12/11 07:51:18;;;;;;;4.38;0.95;;;23.20;43.20;;;;;;5054431;28;20042;-67
2023/12/11 07:53:44;;;;;;;6.15;1.08;;;23.20;43.40;;;;;;5052093;28;20101;-66
2023/12/11 07:56:18;;;;;;;8.27;1.23;;;23.30;43.20;;;;;;5047442;28;20041;-66
2023/12/11 07:58:43;;;;;;;6.35;1.35;;;23.40;43.00;;;;;;5066108;28;20037;-67
2023/12/11 08:01:09;;;;;;;4.72;0.98;;;23.50;42.90;;;;;;5045601;28;20056;-67
2023/12/11 08:03:35;;;;;;;6.35;1.05;;;23.60;42.60;;;;;;5047860;28;20112;-67
2023/12/11 08:06:01;;;;;;;6.07;0.70;;;23.70;42.50;;;;;;5050713;28;20551;-67
2023/12/11 08:08:26;;;;;;;3.83;0.70;;;23.70;42.50;;;;;;5049715;28;20055;-67
2023/12/11 08:10:52;;;;;;;6.53;0.90;;;23.70;42.70;;;;;;5050142;28;20040;-65
2023/12/11 08:13:18;;;;;;;3.17;0.70;;;23.60;42.80;;;;;;5049015;28;20051;-67
2023/12/11 08:15:43;;;;;;;5.03;0.70;;;23.70;43.10;;;;;;5043039;28;20036;-69
2023/12/11 08:18:09;;;;;;;4.47;0.80;;;23.70;43.10;;;;;;5051185;28;20072;-67
2023/12/11 08:20:35;;;;;;;4.13;0.40;;;23.70;43.20;;;;;;5049540;28;20032;-67
2023/12/11 08:23:01;;;;;;;4.88;0.90;;;23.60;43.20;;;;;;5047096;28;20044;-70
2023/12/11 08:25:26;;;;;;;3.97;0.65;;;23.70;43.30;;;;;;5046092;28;20044;-66
2023/12/11 08:27:52;;;;;;;5.63;0.93;;;23.60;43.30;;;;;;5048994;28;20067;-67
2023/12/11 08:30:18;;;;;;;6.50;0.70;;;23.70;43.40;;;;;;5048924;28;20098;-67
2023/12/11 08:32:44;;;;;;;2.95;0.40;;;23.70;43.50;;;;;;5046187;28;20762;-67
2023/12/11 08:35:09;;;;;;;3.25;0.73;;;23.60;43.50;;;;;;5057318;28;20033;-67
2023/12/11 08:37:35;;;;;;;3.08;0.40;;;23.50;43.80;;;;;;5046033;28;20090;-68
2023/12/11 08:40:03;;;;;;;6.40;0.73;;;23.50;44.00;;;;;;5043983;28;20399;-68
2023/12/11 08:42:30;;;;;;;2.42;0.40;;;23.30;44.10;;;;;;5050815;28;20036;-67
2023/12/11 08:44:56;;;;;;;1.85;0.57;;;23.30;44.30;;;;;;5046992;28;20499;-69
2023/12/11 08:47:22;;;;;;;2.47;0.25;;;23.30;44.40;;;;;;5045622;28;20534;-68
2023/12/11 08:49:48;;;;;;;1.23;0.20;;;23.30;44.20;;;;;;5044339;28;20054;-68
2023/12/11 08:52:13;;;;;;;2.42;0.25;;;23.50;43.80;;;;;;5048563;28;20044;-68
2023/12/11 08:54:39;;;;;;;2.83;0.50;;;23.70;43.30;;;;;;5054231;28;20049;-68
2023/12/11 08:57:05;;;;;;;1.25;0.20;;;23.90;42.90;;;;;;5056693;28;20387;-68
2023/12/11 08:59:32;;;;;;;1.35;0.25;;;24.10;42.60;;;;;;5051981;28;20064;-67
2023/12/11 09:01:57;;;;;;;2.58;0.40;;;24.10;42.30;;;;;;5053690;28;20094;-68
2023/12/11 09:04:23;;;;;;;2.42;0.20;;;24.10;42.10;;;;;;5055735;28;20070;-68
2023/12/11 09:06:49;;;;;;;1.73;0.30;;;24.20;42.00;;;;;;5055274;28;20127;-69
2023/12/11 09:09:14;;;;;;;1.52;0.20;;;24.10;42.00;;;;;;5050703;28;20312;-69
2023/12/11 09:11:43;;;;;;;3.88;0.20;;;24.10;42.00;;;;;;5053557;28;20051;-67
2023/12/11 09:14:08;;;;;;;3.97;0.20;;;23.90;42.20;;;;;;5053808;28;20119;-66
2023/12/11 09:16:34;;;;;;;2.80;0.20;;;23.70;42.70;;;;;;5053136;28;20174;-69
2023/12/11 09:19:00;;;;;;;8.15;0.60;;;23.50;43.20;;;;;;5053112;28;20088;-68
2023/12/11 09:21:25;;;;;;;5.10;0.45;;;23.30;43.80;;;;;;5053722;28;20101;-67
2023/12/11 09:23:51;;;;;;;2.65;0.30;;;23.20;44.20;;;;;;5065236;28;20045;-68
2023/12/11 09:26:17;;;;;;;7.10;0.40;;;23.20;44.60;;;;;;5055314;28;20085;-67
2023/12/11 09:28:43;;;;;;;2.88;0.30;;;23.10;44.70;;;;;;5054252;28;20083;-66
2023/12/11 09:31:09;;;;;;;3.58;0.30;;;23.00;44.80;;;;;;5055270;28;20088;-67
2023/12/11 09:33:35;;;;;;;4.68;0.40;;;23.00;45.10;;;;;;5055560;28;20047;-67
2023/12/11 09:36:00;;;;;;;5.80;0.40;;;23.00;45.10;;;;;;5054507;28;20881;-68
2023/12/11 09:38:26;;;;;;;3.75;0.30;;;23.10;44.70;;;;;;5056101;28;20412;-67
2023/12/11 09:40:51;;;;;;;4.05;0.30;;;23.20;44.40;;;;;;5055663;28;20050;-67
2023/12/11 09:43:18;;;;;;;6.60;0.50;;;23.40;44.20;;;;;;5052584;28;20106;-66
2023/12/11 09:45:46;;;;;;;2.95;0.82;;;23.50;43.70;;;;;;5056931;28;20547;-66
2023/12/11 09:48:12;;;;;;;7.25;0.95;;;23.60;43.50;;;;;;5055740;28;20079;-65
2023/12/11 09:50:38;;;;;;;5.28;1.33;;;23.60;43.50;;;;;;5055189;28;20048;-67
2023/12/11 09:53:04;;;;;;;3.83;0.40;;;23.60;43.80;;;;;;5053796;28;20313;-66
2023/12/11 09:55:29;;;;;;;6.05;1.00;;;23.60;43.90;;;;;;5066141;28;20090;-67
2023/12/11 09:57:56;;;;;;;4.15;0.60;;;23.60;43.80;;;;;;5054283;28;20048;-68
2023/12/11 10:00:23;;;;;;;6.18;0.80;;;23.70;43.90;;;;;;5048265;28;20182;-68
2023/12/11 10:02:51;;;;;;;4.07;0.50;;;23.60;44.00;;;;;;5065853;28;20040;-68
2023/12/11 10:05:24;;;;;;;6.93;0.75;;;23.60;44.10;;;;;;5049759;28;20047;-67
2023/12/11 10:07:50;;;;;;;2.97;0.43;;;23.60;44.20;;;;;;5055328;28;20383;-68
2023/12/11 10:12:58;;;;;;;6.03;0.60;;;23.60;44.20;;;;;;5061971;27;20956;-67
2023/12/11 10:15:26;;;;;;;6.70;0.50;;;23.70;44.00;;;;;;5070354;28;20041;-67
2023/12/11 10:18:03;;;;;;;6.72;0.50;;;23.80;44.00;;;;;;5053562;28;20041;-66
2023/12/11 10:20:29;;;;;;;5.68;0.40;;;23.80;43.90;;;;;;5056978;28;20529;-65
2023/12/11 10:22:55;;;;;;;2.70;0.90;;;23.80;44.10;;;;;;5055025;28;20048;-67
2023/12/11 10:25:26;;;;;;;5.40;0.63;;;23.70;44.20;;;;;;5054338;28;20067;-67
2023/12/11 10:28:05;;;;;;;3.75;0.40;;;23.70;44.40;;;;;;5057060;28;20052;-67
2023/12/11 10:30:31;;;;;;;6.13;0.93;;;23.50;44.30;;;;;;5058965;28;20033;-67
2023/12/11 10:33:04;;;;;;;3.08;0.32;;;23.40;44.60;;;;;;5057296;28;20400;-66
2023/12/11 10:35:30;;;;;;;4.60;0.40;;;23.20;44.70;;;;;;5054710;28;20097;-67
2023/12/11 10:38:00;;;;;;;5.55;1.08;;;23.20;45.00;;;;;;5056741;28;20530;-67
2023/12/11 10:40:41;;;;;;;;;;;23.20;45.20;;;;;;5056696;28;20047;-66
2023/12/11 10:43:08;;;;;;;5.47;0.88;;;23.20;45.00;;;;;;5074020;28;20268;-67
2023/12/11 10:45:34;;;;;;;5.65;0.50;;;23.30;44.80;;;;;;5057639;28;20064;-71
2023/12/11 10:48:01;;;;;;;10.63;0.93;;;23.40;44.80;;;;;;5054207;28;20044;-67
2023/12/11 10:50:27;;;;;;;3.20;0.43;;;23.50;44.50;;;;;;5058575;28;20060;-71
2023/12/11 10:52:54;;;;;;;7.50;0.50;;;23.60;44.10;;;;;;5060772;28;20537;-67
2023/12/11 10:55:20;;;;;;;5.50;0.45;;;23.80;43.80;;;;;;5055811;28;20037;-68
2023/12/11 10:57:45;;;;;;;10.70;0.98;;;23.90;43.50;;;;;;5076097;28;20052;-68
2023/12/11 11:00:14;;;;;;;4.70;0.50;;;23.90;43.20;;;;;;5059894;28;20057;-67
2023/12/11 11:02:44;;;;;;;2.70;0.43;;;24.00;43.20;;;;;;5059185;28;20356;-68
2023/12/11 11:05:11;;;;;;;4.15;0.40;;;24.00;43.10;;;;;;5057678;28;20060;-72
2023/12/11 11:07:52;;;;;;;2.60;0.40;;;23.90;43.10;;;;;;5055750;28;20068;-72
2023/12/11 11:15:39;;;;;;;2.20;0.45;;;23.80;43.20;;;;;;5072022;28;20410;-66
2023/12/11 11:18:06;;;;;;;2.60;0.40;;;23.50;43.80;;;;;;5066126;28;20028;-66
2023/12/11 11:20:33;;;;;;;5.47;0.40;;;23.30;44.10;;;;;;5079458;28;20468;-68
2023/12/11 11:25:59;;;;;;;5.90;0.55;;;22.90;44.90;;;;;;5113635;27;20419;-65
2023/12/11 11:28:50;;;;;;;4.07;0.40;;;22.70;45.50;;;;;;5112806;28;20108;-66
2023/12/11 11:31:15;;;;;;;;;;;22.60;45.50;;;;;;5123477;28;20061;-66
2023/12/11 11:36:43;;;;;;;4.85;0.82;;;22.60;45.20;;;;;;5090117;27;20359;-66
2023/12/11 11:39:09;;;;;;;5.07;0.88;;;22.70;44.80;;;;;;5054279;28;20044;-68
2023/12/11 11:41:35;;;;;;;6.93;1.30;;;22.70;44.40;;;;;;5071397;28;20460;-66
2023/12/11 11:49:31;;;;;;;6.65;1.45;;;22.90;44.10;;;;;;5115365;27;20140;-66
2023/12/11 11:51:58;;;;;;;5.43;1.23;;;23.20;43.70;;;;;;5112654;28;20043;-66
2023/12/11 11:54:28;;;;;;;5.40;1.02;;;23.30;43.30;;;;;;5113683;27;20051;-67
2023/12/11 11:56:54;;;;;;;5.35;0.75;;;23.40;43.10;;;;;;5104600;28;20031;-66
2023/12/11 11:59:20;;;;;;;8.60;1.33;;;23.50;43.00;;;;;;5109427;28;20047;-66
2023/12/11 12:02:00;;;;;;;4.53;0.80;;;23.60;42.80;;;;;;5140237;27;20066;-67
2023/12/11 12:07:08;;;;;;;5.03;0.90;;;23.70;42.80;;;;;;5116347;27;20363;-66
2023/12/11 12:09:34;;;;;;;5.05;1.05;;;23.70;42.60;;;;;;5094233;28;20329;-66
2023/12/11 12:12:01;;;;;;;3.40;0.47;;;23.70;42.60;;;;;;5096372;28;20040;-66
2023/12/11 12:14:26;;;;;;;3.05;0.43;;;23.80;42.60;;;;;;5095538;28;20062;-66
2023/12/11 12:16:52;;;;;;;4.60;0.80;;;23.70;42.50;;;;;;5094762;28;20039;-68
2023/12/11 12:19:34;;;;;;;5.40;0.77;;;23.70;42.60;;;;;;5093290;28;20068;-68
2023/12/11 12:22:01;;;;;;;4.10;1.00;;;23.70;43.50;;;;;;5101063;28;20040;-65
2023/12/11 12:24:27;;;;;;;5.18;0.90;;;23.70;42.70;;;;;;5095615;28;20544;-66
2023/12/11 12:27:00;;;;;;;6.47;1.25;;;23.60;42.50;;;;;;5097397;28;20079;-66
2023/12/11 12:29:27;;;;;;;6.70;0.73;;;23.50;42.60;;;;;;5095790;28;20032;-66
2023/12/11 12:31:53;;;;;;;4.75;1.10;;;23.50;42.80;;;;;;5097450;28;20023;-66
2023/12/11 12:34:19;;;;;;;4.07;0.88;;;23.50;42.90;;;;;;5099232;28;20024;-66
2023/12/11 12:36:45;;;;;;;3.33;0.52;;;23.40;42.90;;;;;;5096096;28;20040;-66
2023/12/11 12:39:13;;;;;;;4.03;0.45;;;23.40;43.00;;;;;;5097104;28;20094;-66
2023/12/11 12:41:39;;;;;;;6.72;1.00;;;23.40;43.10;;;;;;5095437;28;20046;-66
2023/12/11 12:44:05;;;;;;;3.20;0.40;;;23.60;42.90;;;;;;5101616;28;20037;-68
2023/12/11 12:46:40;;;;;;;3.92;0.40;;;23.80;42.70;;;;;;5098292;28;20385;-68
2023/12/11 12:49:08;;;;;;;3.53;0.25;;;24.00;42.20;;;;;;5092123;28;20126;-69
2023/12/11 12:51:44;;;;;;;2.33;0.38;;;23.90;42.00;;;;;;5094916;28;20036;-66
2023/12/11 12:54:11;;;;;;;1.80;0.40;;;23.80;42.20;;;;;;5092440;28;20125;-69
2023/12/11 12:56:36;;;;;;;3.80;0.80;;;23.60;42.40;;;;;;5092548;28;20055;-73
2023/12/11 12:59:03;;;;;;;3.00;0.75;;;23.40;42.80;;;;;;5093738;28;20051;-66
2023/12/11 13:01:36;;;;;;;3.67;0.40;;;23.30;43.00;;;;;;5090039;28;20043;-69
2023/12/11 13:04:03;;;;;;;6.97;0.80;;;23.30;43.20;;;;;;5094169;28;20495;-67
2023/12/11 13:06:29;;;;;;;3.38;0.65;;;23.30;43.10;;;;;;5091758;28;20105;-68